createdAt,value
2023-05-08T00:02:05.105Z,21.46
2023-05-08T00:07:07.887Z,21.41
2023-05-08T00:12:10.656Z,21.35
2023-05-08T00:17:14.954Z,21.30
2023-05-08T00:22:17.739Z,21.27
2023-05-08T00:27:20.703Z,21.24
2023-05-08T00:32:24.982Z,21.20
2023-05-08T00:37:28.575Z,21.17
2023-05-08T00:42:31.368Z,21.14
2023-05-08T00:47:35.519Z,21.14
2023-05-08T00:52:38.316Z,21.09
2023-05-08T00:57:41.217Z,21.08
2023-05-08T01:02:45.511Z,21.03
2023-05-08T01:07:48.540Z,21.01
2023-05-08T01:12:57.656Z,20.97
2023-05-08T01:18:05.949Z,20.94
2023-05-08T01:23:41.912Z,20.91
2023-05-08T01:29:07.853Z,20.78
2023-05-08T01:34:15.393Z,20.82
2023-05-08T01:39:19.915Z,20.80
2023-05-08T01:44:23.068Z,20.80
2023-05-08T01:49:28.562Z,20.66
2023-05-08T01:54:37.367Z,20.74
2023-05-08T01:59:42.988Z,20.70
2023-05-08T02:04:48.017Z,20.68
2023-05-08T02:09:50.820Z,20.65
2023-05-08T02:14:54.177Z,20.61
2023-05-08T02:19:58.756Z,20.62
2023-05-08T02:25:01.541Z,20.58
2023-05-08T02:30:04.837Z,20.54
2023-05-08T02:35:10.021Z,20.52
2023-05-08T02:40:14.027Z,20.51
2023-05-08T02:45:17.028Z,20.50
2023-05-08T02:50:24.725Z,20.49
2023-05-08T02:55:34.196Z,20.48
2023-05-08T03:00:44.747Z,20.44
2023-05-08T03:05:52.674Z,20.43
2023-05-08T03:10:56.625Z,20.39
2023-05-08T03:16:01.269Z,20.41
2023-05-08T03:21:05.791Z,20.38
2023-05-08T03:26:08.626Z,20.33
2023-05-08T03:31:12.583Z,20.29
2023-05-08T03:36:17.050Z,20.25
2023-05-08T03:41:19.912Z,20.21
2023-05-08T03:46:23.539Z,20.18
2023-05-08T03:51:28.842Z,20.16
2023-05-08T03:56:31.964Z,20.15
2023-05-08T04:01:40.468Z,20.14
2023-05-08T04:06:51.893Z,20.11
2023-05-08T04:12:06.174Z,20.08
2023-05-08T04:17:11.769Z,20.10
2023-05-08T04:22:16.028Z,20.10
2023-05-08T04:27:18.881Z,20.10
2023-05-08T04:32:21.936Z,20.09
2023-05-08T04:37:27.075Z,20.06
2023-05-08T04:42:31.527Z,20.09
2023-05-08T04:47:36.535Z,20.09
2023-05-08T04:52:41.408Z,20.10
2023-05-08T04:57:44.519Z,20.11
2023-05-08T05:02:47.901Z,20.13
2023-05-08T05:07:52.138Z,20.12
2023-05-08T05:12:56.420Z,20.13
2023-05-08T05:17:59.496Z,20.15
2023-05-08T05:23:03.909Z,20.16
2023-05-08T05:28:07.332Z,20.16
2023-05-08T05:33:10.259Z,20.17
2023-05-08T05:38:14.698Z,20.19
2023-05-08T05:43:17.732Z,20.19
2023-05-08T05:48:21.439Z,20.20
2023-05-08T05:53:26.033Z,20.21
2023-05-08T05:58:29.443Z,20.23
2023-05-08T06:03:32.888Z,20.26
2023-05-08T06:08:37.145Z,20.25
2023-05-08T06:13:40.854Z,20.31
2023-05-08T06:18:44.092Z,20.34
2023-05-08T06:23:48.354Z,20.35
2023-05-08T06:28:51.159Z,20.35
2023-05-08T06:33:53.964Z,20.41
2023-05-08T06:38:58.161Z,20.42
2023-05-08T06:44:01.008Z,20.46
2023-05-08T06:49:03.895Z,20.51
2023-05-08T06:54:08.645Z,20.52
2023-05-08T06:59:11.596Z,20.56
2023-05-08T07:04:14.515Z,20.59
2023-05-08T07:09:18.708Z,20.61
2023-05-08T07:14:21.501Z,20.63
2023-05-08T07:19:24.898Z,20.67
2023-05-08T07:24:29.077Z,20.70
2023-05-08T07:29:31.896Z,20.72
2023-05-08T07:34:34.926Z,20.75
2023-05-08T07:39:39.197Z,20.78
2023-05-08T07:44:53.869Z,20.79
2023-05-08T07:49:57.849Z,20.80
2023-05-08T07:55:01.965Z,20.82
2023-05-08T08:00:05.640Z,20.82
2023-05-08T08:05:16.354Z,20.83
2023-05-08T08:10:20.789Z,20.86
2023-05-08T08:15:23.679Z,20.87
2023-05-08T08:20:26.531Z,20.83
2023-05-08T08:25:30.859Z,20.41
2023-05-08T08:30:33.701Z,20.17
2023-05-08T08:35:36.741Z,19.96
2023-05-08T08:40:44.041Z,19.78
2023-05-08T08:45:47.219Z,19.69
2023-05-08T08:50:50.006Z,19.59
2023-05-08T08:55:55.628Z,19.59
2023-05-08T09:00:58.511Z,19.41
2023-05-08T09:06:01.928Z,19.32
2023-05-08T09:11:06.580Z,19.12
2023-05-08T09:16:09.437Z,19.18
2023-05-08T09:21:12.541Z,19.05
2023-05-08T09:26:27.951Z,19.14
2023-05-08T09:31:35.845Z,19.16
2023-05-08T09:36:40.246Z,19.01
2023-05-08T09:41:57.666Z,19.04
2023-05-08T09:47:12.768Z,18.92
2023-05-08T09:52:16.754Z,18.93
2023-05-08T09:57:21.597Z,18.95
2023-05-08T10:02:24.584Z,19.00
2023-05-08T10:07:31.523Z,19.06
2023-05-08T10:12:38.077Z,19.07
2023-05-08T10:17:43.662Z,19.08
2023-05-08T10:22:46.724Z,19.02
2023-05-08T10:27:54.927Z,19.07
2023-05-08T10:32:58.902Z,19.07
2023-05-08T10:38:01.702Z,19.23
2023-05-08T10:43:07.585Z,19.30
2023-05-08T10:48:14.713Z,19.34
2023-05-08T10:53:20.625Z,19.45
2023-05-08T10:58:35.036Z,19.47
2023-05-08T11:03:40.190Z,19.65
2023-05-08T11:08:54.404Z,19.65
2023-05-08T11:14:00.781Z,19.71
2023-05-08T11:19:19.517Z,19.73
2023-05-08T11:24:22.323Z,19.83
2023-05-08T11:29:26.637Z,20.01
2023-05-08T11:34:48.816Z,20.06
2023-05-08T11:39:51.770Z,20.18
2023-05-08T11:45:03.432Z,20.21
2023-05-08T11:50:07.309Z,20.28
2023-05-08T11:55:11.223Z,20.34
2023-05-08T12:00:16.959Z,20.37
2023-05-08T12:05:27.544Z,20.45
2023-05-08T12:10:30.479Z,20.50
2023-05-08T12:15:34.698Z,20.60
2023-05-08T12:20:37.596Z,20.61
2023-05-08T12:25:40.676Z,20.73
2023-05-08T12:30:44.968Z,20.86
2023-05-08T12:35:47.830Z,20.95
2023-05-08T12:40:52.978Z,21.08
2023-05-08T12:45:57.236Z,21.18
2023-05-08T12:51:04.274Z,21.17
2023-05-08T12:56:08.150Z,21.29
2023-05-08T13:01:13.501Z,21.43
2023-05-08T13:06:22.675Z,21.25
2023-05-08T13:11:32.974Z,21.25
2023-05-08T13:16:44.712Z,21.36
2023-05-08T13:21:47.866Z,21.64
2023-05-08T13:26:50.626Z,21.84
2023-05-08T13:31:55.028Z,22.05
2023-05-08T13:36:57.848Z,22.20
2023-05-08T13:42:00.684Z,22.31
2023-05-08T13:47:05.010Z,22.33
2023-05-08T13:52:07.873Z,22.47
2023-05-08T13:57:10.735Z,22.53
2023-05-08T14:02:15.433Z,22.64
2023-05-08T14:07:18.489Z,22.64
2023-05-08T14:12:21.264Z,22.77
2023-05-08T14:17:25.616Z,22.73
2023-05-08T14:22:28.770Z,22.97
2023-05-08T14:27:31.605Z,23.07
2023-05-08T14:32:35.853Z,23.12
2023-05-08T14:37:38.691Z,23.24
2023-05-08T14:42:41.612Z,23.29
2023-05-08T14:47:46.327Z,23.23
2023-05-08T14:52:49.487Z,23.29
2023-05-08T14:57:52.406Z,23.23
2023-05-08T15:02:57.081Z,23.12
2023-05-08T15:08:01.476Z,23.35
2023-05-08T15:13:04.371Z,23.46
2023-05-08T15:18:08.639Z,23.19
2023-05-08T15:23:11.532Z,23.25
2023-05-08T15:28:14.428Z,23.23
2023-05-08T15:33:18.741Z,23.09
2023-05-08T15:38:21.469Z,23.09
2023-05-08T15:43:24.240Z,22.95
2023-05-08T15:48:28.431Z,23.13
2023-05-08T15:53:31.360Z,23.19
2023-05-08T15:58:36.552Z,23.30
2023-05-08T16:03:40.745Z,23.40
2023-05-08T16:08:43.989Z,23.43
2023-05-08T16:13:46.794Z,23.41
2023-05-08T16:18:50.947Z,23.54
2023-05-08T16:23:53.988Z,24.16
2023-05-08T16:28:56.828Z,24.39
2023-05-08T16:34:00.940Z,23.91
2023-05-08T16:39:04.025Z,23.77
2023-05-08T16:44:06.832Z,23.77
2023-05-08T16:49:11.038Z,24.65
2023-05-08T16:54:14.042Z,25.23
2023-05-08T16:59:16.986Z,24.56
2023-05-08T17:04:21.736Z,25.40
2023-05-08T17:09:25.314Z,26.84
2023-05-08T17:14:28.616Z,27.22
2023-05-08T17:19:32.956Z,27.35
2023-05-08T17:24:37.302Z,27.32
2023-05-08T17:29:40.424Z,26.87
2023-05-08T17:34:44.725Z,25.86
2023-05-08T17:39:47.592Z,25.28
2023-05-08T17:44:50.547Z,25.02
2023-05-08T17:49:54.680Z,24.77
2023-05-08T17:54:58.007Z,24.61
2023-05-08T18:00:00.828Z,24.37
2023-05-08T18:05:05.668Z,24.28
2023-05-08T18:10:09.693Z,24.26
2023-05-08T18:15:13.397Z,24.15
2023-05-08T18:20:17.644Z,24.06
2023-05-08T18:25:20.784Z,23.92
2023-05-08T18:30:23.912Z,23.74
2023-05-08T18:35:28.161Z,23.60
2023-05-08T18:40:31.299Z,23.46
2023-05-08T18:45:34.114Z,23.35
2023-05-08T18:50:38.492Z,23.32
2023-05-08T18:55:41.680Z,23.25
2023-05-08T19:00:45.261Z,23.23
2023-05-08T19:05:51.186Z,23.16
2023-05-08T19:10:54.049Z,23.15
2023-05-08T19:15:56.849Z,23.11
2023-05-08T19:21:02.317Z,23.09
2023-05-08T19:26:05.301Z,23.05
2023-05-08T19:31:08.347Z,23.03
2023-05-08T19:36:12.695Z,23.03
2023-05-08T19:41:17.187Z,23.04
2023-05-08T19:46:20.457Z,22.99
2023-05-08T19:51:25.131Z,22.98
2023-05-08T19:56:27.955Z,23.02
2023-05-08T20:01:30.972Z,22.99
2023-05-08T20:06:35.256Z,23.02
2023-05-08T20:11:38.123Z,22.98
2023-05-08T20:16:41.774Z,23.01
2023-05-08T20:21:46.850Z,22.97
2023-05-08T20:26:51.784Z,23.01
2023-05-08T20:31:54.918Z,23.00
2023-05-08T20:37:00.866Z,22.95
2023-05-08T20:42:03.686Z,22.98
2023-05-08T20:47:06.590Z,22.94
2023-05-08T20:52:10.773Z,22.95
2023-05-08T20:57:15.716Z,22.95
2023-05-08T21:02:18.609Z,22.95
2023-05-08T21:07:22.762Z,22.96
2023-05-08T21:12:25.743Z,22.93
2023-05-08T21:17:28.633Z,22.93
2023-05-08T21:22:34.051Z,22.95
2023-05-08T21:27:49.890Z,22.93
2023-05-08T21:32:52.835Z,22.96
2023-05-08T21:37:57.069Z,22.92
2023-05-08T21:43:00.050Z,22.91
2023-05-08T21:48:03.111Z,22.90
2023-05-08T21:53:07.428Z,22.89
2023-05-08T21:58:10.231Z,22.92
2023-05-08T22:03:13.148Z,22.87
2023-05-08T22:08:17.377Z,22.85
2023-05-08T22:13:20.358Z,22.79
2023-05-08T22:18:23.292Z,22.75
2023-05-08T22:23:27.400Z,22.69
2023-05-08T22:28:30.179Z,22.58
2023-05-08T22:33:33.933Z,22.56
2023-05-08T22:38:38.136Z,22.48
2023-05-08T22:43:40.871Z,22.41
2023-05-08T22:48:43.618Z,22.38
2023-05-08T22:53:48.243Z,22.34
2023-05-08T22:58:51.137Z,22.26
2023-05-08T23:03:54.389Z,22.21
2023-05-08T23:08:58.501Z,22.19
2023-05-08T23:14:01.292Z,22.17
2023-05-08T23:19:04.514Z,22.12
2023-05-08T23:24:09.178Z,22.10
2023-05-08T23:29:12.008Z,22.09
2023-05-08T23:34:14.804Z,22.02
2023-05-08T23:39:19.107Z,21.97
2023-05-08T23:44:21.919Z,21.88
2023-05-08T23:49:25.003Z,21.81
2023-05-08T23:54:29.074Z,21.74
2023-05-08T23:59:31.922Z,21.63
